createdAt,value
2023-03-13T00:00:44.855Z,96913.69
2023-03-13T00:01:48.631Z,96912.97
2023-03-13T00:02:51.218Z,96914.56
2023-03-13T00:03:55.154Z,96905.66
2023-03-13T00:04:57.737Z,96906.88
2023-03-13T00:05:59.489Z,96909.72
2023-03-13T00:07:02.043Z,96898.03
2023-03-13T00:08:03.940Z,96903.81
2023-03-13T00:09:07.193Z,96901.09
2023-03-13T00:10:09.556Z,96892.84
2023-03-13T00:11:12.907Z,96900.13
2023-03-13T00:12:15.527Z,96887.06
2023-03-13T00:13:17.132Z,96893.44
2023-03-13T00:14:19.691Z,96889.91
2023-03-13T00:15:21.270Z,96879.75
2023-03-13T00:16:24.099Z,96881.66
2023-03-13T00:17:27.076Z,96877.47
2023-03-13T00:18:29.664Z,96874.31
2023-03-13T00:19:31.251Z,96873.09
2023-03-13T00:20:33.819Z,96878.41
2023-03-13T00:21:37.527Z,96864.47
2023-03-13T00:22:40.098Z,96872.72
2023-03-13T00:23:41.713Z,96866.72
2023-03-13T00:24:44.316Z,96867.75
2023-03-13T00:25:45.889Z,96852.50
2023-03-13T00:26:48.831Z,96855.56
2023-03-13T00:27:50.418Z,96852.03
2023-03-13T00:28:53.158Z,96843.66
2023-03-13T00:29:54.750Z,96841.16
2023-03-13T00:31:04.171Z,96850.00
2023-03-13T00:32:07.017Z,96842.84
2023-03-13T00:33:10.041Z,96844.50
2023-03-13T00:34:12.671Z,96843.63
2023-03-13T00:35:14.458Z,96838.53
2023-03-13T00:36:18.254Z,96848.16
2023-03-13T00:37:20.836Z,96833.47
2023-03-13T00:38:22.490Z,96830.19
2023-03-13T00:39:25.052Z,96829.59
2023-03-13T00:40:26.652Z,96823.38
2023-03-13T00:41:29.918Z,96817.94
2023-03-13T00:42:31.693Z,96824.59
2023-03-13T00:43:34.365Z,96827.78
2023-03-13T00:44:35.958Z,96806.84
2023-03-13T00:45:38.525Z,96813.06
2023-03-13T00:46:40.113Z,96802.63
2023-03-13T00:47:42.686Z,96797.81
2023-03-13T00:48:45.770Z,96803.13
2023-03-13T00:49:48.330Z,96808.22
2023-03-13T00:50:49.901Z,96798.94
2023-03-13T00:51:52.445Z,96791.94
2023-03-13T00:52:54.385Z,96779.69
2023-03-13T00:53:57.392Z,96780.25
2023-03-13T00:54:59.020Z,96773.84
2023-03-13T00:56:02.537Z,96784.69
2023-03-13T00:57:04.330Z,96769.38
2023-03-13T00:58:06.913Z,96774.09
2023-03-13T00:59:08.487Z,96773.75
2023-03-13T01:00:12.864Z,96763.34
2023-03-13T01:01:16.000Z,96769.91
2023-03-13T01:02:18.663Z,96764.56
2023-03-13T01:03:20.573Z,96767.28
2023-03-13T01:04:24.596Z,96757.13
2023-03-13T01:05:26.178Z,96760.25
2023-03-13T01:06:29.501Z,96748.97
2023-03-13T01:07:31.091Z,96755.97
2023-03-13T01:08:34.016Z,96757.03
2023-03-13T01:09:35.610Z,96752.81
2023-03-13T01:10:38.219Z,96741.63
2023-03-13T01:11:41.461Z,96750.97
2023-03-13T01:12:43.057Z,96740.66
2023-03-13T01:13:45.812Z,96731.34
2023-03-13T01:14:49.844Z,96741.25
2023-03-13T01:15:52.604Z,96729.81
2023-03-13T01:16:54.227Z,96738.47
2023-03-13T01:17:56.769Z,96734.53
2023-03-13T01:18:59.958Z,96733.66
2023-03-13T01:20:05.501Z,96723.81
2023-03-13T01:21:07.119Z,96745.38
2023-03-13T01:22:11.174Z,96737.06
2023-03-13T01:23:12.757Z,96725.41
2023-03-13T01:24:16.614Z,96731.00
2023-03-13T01:25:18.348Z,96727.16
2023-03-13T01:26:21.208Z,96724.00
2023-03-13T01:27:22.800Z,96725.16
2023-03-13T01:28:25.646Z,96724.00
2023-03-13T01:29:27.355Z,96724.81
2023-03-13T01:30:29.928Z,96708.31
2023-03-13T01:31:33.510Z,96718.47
2023-03-13T01:32:36.013Z,96714.81
2023-03-13T01:33:38.598Z,96709.63
2023-03-13T01:34:40.726Z,96702.63
2023-03-13T01:35:44.739Z,96699.53
2023-03-13T01:36:50.439Z,96714.28
2023-03-13T01:37:53.006Z,96701.91
2023-03-13T01:38:55.327Z,96695.59
2023-03-13T01:39:57.914Z,96701.50
2023-03-13T01:40:59.508Z,96698.06
2023-03-13T01:42:02.049Z,96689.81
2023-03-13T01:43:17.562Z,96696.38
2023-03-13T01:44:28.407Z,96697.97
2023-03-13T01:45:57.058Z,96687.19
2023-03-13T01:46:59.632Z,96690.63
2023-03-13T01:48:01.222Z,96689.13
2023-03-13T01:49:04.672Z,96684.38
2023-03-13T01:50:06.651Z,96683.59
2023-03-13T01:51:13.166Z,96679.03
2023-03-13T01:52:17.247Z,96678.66
2023-03-13T01:53:18.835Z,96678.25
2023-03-13T01:54:24.223Z,96668.97
2023-03-13T01:55:25.891Z,96673.59
2023-03-13T01:56:31.110Z,96664.41
2023-03-13T01:57:33.534Z,96655.91
2023-03-13T01:58:36.107Z,96650.09
2023-03-13T01:59:41.104Z,96657.66
2023-03-13T02:00:43.653Z,96660.38
2023-03-13T02:01:47.408Z,96648.28
2023-03-13T02:02:50.015Z,96641.56
2023-03-13T02:03:52.578Z,96638.34
2023-03-13T02:04:55.764Z,96636.22
2023-03-13T02:05:58.349Z,96638.50
2023-03-13T02:07:02.748Z,96625.28
2023-03-13T02:08:07.540Z,96624.66
2023-03-13T02:09:10.405Z,96627.84
2023-03-13T02:10:12.978Z,96621.09
2023-03-13T02:11:19.773Z,96622.84
2023-03-13T02:12:25.259Z,96618.47
2023-03-13T02:13:27.051Z,96618.28
2023-03-13T02:14:29.954Z,96623.28
2023-03-13T02:15:31.585Z,96627.22
2023-03-13T02:16:34.197Z,96612.84
2023-03-13T02:17:36.007Z,96612.75
2023-03-13T02:18:38.938Z,96613.75
2023-03-13T02:19:42.468Z,96617.13
2023-03-13T02:20:45.076Z,96611.44
2023-03-13T02:21:49.919Z,96602.72
2023-03-13T02:22:56.027Z,96615.06
2023-03-13T02:23:59.924Z,96598.75
2023-03-13T02:25:04.149Z,96595.38
2023-03-13T02:26:07.071Z,96609.25
2023-03-13T02:27:09.709Z,96588.28
2023-03-13T02:28:12.173Z,96569.38
2023-03-13T02:29:18.352Z,96571.38
2023-03-13T02:30:20.098Z,96582.56
2023-03-13T02:31:22.760Z,96561.13
2023-03-13T02:32:24.522Z,96571.19
2023-03-13T02:33:28.046Z,96559.56
2023-03-13T02:34:31.778Z,96562.81
2023-03-13T02:35:34.390Z,96541.09
2023-03-13T02:36:36.024Z,96556.31
2023-03-13T02:37:38.677Z,96533.72
2023-03-13T02:38:42.945Z,96547.66
2023-03-13T02:39:47.361Z,96547.19
2023-03-13T02:40:48.936Z,96534.84
2023-03-13T02:41:52.841Z,96525.69
2023-03-13T02:42:54.756Z,96523.31
2023-03-13T02:43:57.311Z,96526.41
2023-03-13T02:44:58.902Z,96518.34
2023-03-13T02:46:03.193Z,96511.34
2023-03-13T02:47:05.055Z,96493.47
2023-03-13T02:48:07.774Z,96485.44
2023-03-13T02:49:19.369Z,96482.25
2023-03-13T02:50:22.255Z,96475.25
2023-03-13T02:51:25.903Z,96480.78
2023-03-13T02:52:30.089Z,96483.56
2023-03-13T02:53:32.254Z,96468.94
2023-03-13T02:54:35.831Z,96466.56
2023-03-13T02:55:39.694Z,96473.56
2023-03-13T02:56:43.223Z,96468.22
2023-03-13T02:57:46.190Z,96465.59
2023-03-13T02:58:50.403Z,96460.09
2023-03-13T02:59:52.270Z,96453.25
2023-03-13T03:00:55.071Z,96463.34
2023-03-13T03:01:57.850Z,96464.03
2023-03-13T03:02:59.450Z,96459.91
2023-03-13T03:04:02.105Z,96464.09
2023-03-13T03:05:04.200Z,96468.19
2023-03-13T03:06:07.369Z,96464.41
2023-03-13T03:07:08.963Z,96463.72
2023-03-13T03:08:11.528Z,96464.41
2023-03-13T03:09:13.239Z,96463.34
2023-03-13T03:10:15.885Z,96452.22
2023-03-13T03:11:17.563Z,96469.78
2023-03-13T03:12:20.152Z,96459.78
2023-03-13T03:13:23.107Z,96450.50
2023-03-13T03:14:25.710Z,96448.91
2023-03-13T03:15:27.487Z,96448.91
2023-03-13T03:16:30.180Z,96456.28
2023-03-13T03:17:31.794Z,96455.94
2023-03-13T03:18:34.753Z,96448.50
2023-03-13T03:19:36.423Z,96452.44
2023-03-13T03:20:39.021Z,96459.44
2023-03-13T03:21:40.618Z,96466.44
2023-03-13T03:22:43.244Z,96461.44
2023-03-13T03:23:44.853Z,96472.59
2023-03-13T03:24:47.465Z,96474.53
2023-03-13T03:25:49.060Z,96471.38
2023-03-13T03:26:51.651Z,96491.16
2023-03-13T03:27:53.327Z,96470.16
2023-03-13T03:28:57.260Z,96472.16
2023-03-13T03:29:58.883Z,96474.94
2023-03-13T03:31:05.047Z,96464.53
2023-03-13T03:32:06.885Z,96470.03
2023-03-13T03:33:09.550Z,96467.31
2023-03-13T03:34:11.165Z,96460.72
2023-03-13T03:35:13.787Z,96459.88
2023-03-13T03:36:16.282Z,96457.50
2023-03-13T03:37:18.889Z,96456.75
2023-03-13T03:38:20.499Z,96446.66
2023-03-13T03:39:23.076Z,96444.72
2023-03-13T03:40:25.099Z,96441.94
2023-03-13T03:41:27.673Z,96440.69
2023-03-13T03:42:29.335Z,96434.84
2023-03-13T03:43:31.915Z,96442.19
2023-03-13T03:44:34.877Z,96449.13
2023-03-13T03:45:37.580Z,96445.63
2023-03-13T03:46:39.257Z,96437.84
2023-03-13T03:47:42.022Z,96443.69
2023-03-13T03:48:43.626Z,96462.28
2023-03-13T03:49:46.222Z,96437.84
2023-03-13T03:50:47.863Z,96450.56
2023-03-13T03:51:50.479Z,96435.56
2023-03-13T03:52:52.100Z,96427.28
2023-03-13T03:53:54.717Z,96423.00
2023-03-13T03:54:56.336Z,96424.56
2023-03-13T03:55:59.016Z,96426.16
2023-03-13T03:57:00.605Z,96426.91
2023-03-13T03:58:03.175Z,96425.78
2023-03-13T03:59:04.772Z,96425.84
2023-03-13T04:00:13.992Z,96425.22
2023-03-13T04:01:15.666Z,96437.22
2023-03-13T04:02:18.710Z,96433.25
2023-03-13T04:03:20.384Z,96459.28
2023-03-13T04:04:22.975Z,96439.94
2023-03-13T04:05:24.683Z,96429.41
2023-03-13T04:06:27.330Z,96447.28
2023-03-13T04:07:28.934Z,96427.63
2023-03-13T04:08:31.514Z,96442.78
2023-03-13T04:09:33.114Z,96427.75
2023-03-13T04:10:35.694Z,96440.28
2023-03-13T04:11:37.403Z,96415.00
2023-03-13T04:12:40.457Z,96433.13
2023-03-13T04:13:42.041Z,96435.56
2023-03-13T04:14:44.619Z,96435.47
2023-03-13T04:15:48.725Z,96428.84
2023-03-13T04:16:51.405Z,96430.19
2023-03-13T04:17:53.125Z,96446.94
2023-03-13T04:18:55.694Z,96455.16
2023-03-13T04:19:57.296Z,96427.69
2023-03-13T04:21:02.851Z,96438.03
2023-03-13T04:22:04.537Z,96410.66
2023-03-13T04:23:07.114Z,96406.00
2023-03-13T04:24:08.987Z,96399.72
2023-03-13T04:25:11.709Z,96414.16
2023-03-13T04:26:13.333Z,96422.34
2023-03-13T04:27:15.950Z,96408.59
2023-03-13T04:28:17.560Z,96413.34
2023-03-13T04:29:20.151Z,96398.31
2023-03-13T04:30:21.971Z,96409.50
2023-03-13T04:31:25.894Z,96407.53
2023-03-13T04:32:27.595Z,96416.97
2023-03-13T04:33:30.211Z,96411.53
2023-03-13T04:34:31.847Z,96405.34
2023-03-13T04:35:34.565Z,96411.16
2023-03-13T04:36:36.295Z,96381.31
2023-03-13T04:37:39.022Z,96379.66
2023-03-13T04:38:40.617Z,96399.06
2023-03-13T04:39:43.264Z,96384.81
2023-03-13T04:40:46.753Z,96406.19
2023-03-13T04:41:48.368Z,96392.66
2023-03-13T04:42:51.110Z,96380.16
2023-03-13T04:43:52.701Z,96391.38
2023-03-13T04:44:55.266Z,96382.53
2023-03-13T04:45:56.936Z,96374.72
2023-03-13T04:47:00.912Z,96383.19
2023-03-13T04:48:02.594Z,96403.06
2023-03-13T04:49:07.671Z,96386.69
2023-03-13T04:50:10.942Z,96393.16
2023-03-13T04:51:13.691Z,96378.44
2023-03-13T04:52:15.285Z,96390.09
2023-03-13T04:53:17.906Z,96356.31
2023-03-13T04:54:19.493Z,96385.16
2023-03-13T04:55:22.090Z,96378.06
2023-03-13T04:56:39.639Z,96369.53
2023-03-13T04:57:44.554Z,96359.50
2023-03-13T04:58:47.077Z,96360.66
2023-03-13T04:59:49.770Z,96348.56
2023-03-13T05:00:51.377Z,96354.28
2023-03-13T05:01:54.036Z,96370.28
2023-03-13T05:02:57.052Z,96349.78
2023-03-13T05:03:59.695Z,96338.53
2023-03-13T05:05:01.347Z,96354.88
2023-03-13T05:06:03.967Z,96356.47
2023-03-13T05:07:05.615Z,96351.00
2023-03-13T05:08:08.705Z,96349.81
2023-03-13T05:09:10.370Z,96355.63
2023-03-13T05:10:13.002Z,96359.50
2023-03-13T05:11:14.617Z,96371.19
2023-03-13T05:12:17.274Z,96361.91
2023-03-13T05:13:18.894Z,96357.28
2023-03-13T05:14:21.809Z,96361.13
2023-03-13T05:15:23.446Z,96347.53
2023-03-13T05:16:26.400Z,96362.41
2023-03-13T05:17:28.028Z,96361.59
2023-03-13T05:18:31.993Z,96355.94
2023-03-13T05:19:33.775Z,96357.84
2023-03-13T05:20:36.365Z,96348.38
2023-03-13T05:21:37.983Z,96368.59
2023-03-13T05:22:40.573Z,96359.78
2023-03-13T05:23:42.199Z,96344.25
2023-03-13T05:24:44.822Z,96339.16
2023-03-13T05:25:46.500Z,96334.75
2023-03-13T05:26:49.090Z,96312.63
2023-03-13T05:27:50.748Z,96360.75
2023-03-13T05:28:53.322Z,96341.84
2023-03-13T05:29:55.010Z,96346.00
2023-03-13T05:30:58.820Z,96339.84
2023-03-13T05:32:00.461Z,96328.22
2023-03-13T05:33:03.061Z,96330.91
2023-03-13T05:34:06.066Z,96350.44
2023-03-13T05:35:09.252Z,96331.06
2023-03-13T05:36:10.918Z,96325.97
2023-03-13T05:37:13.607Z,96339.16
2023-03-13T05:38:15.236Z,96337.22
2023-03-13T05:39:17.832Z,96341.56
2023-03-13T05:40:19.558Z,96326.03
2023-03-13T05:41:22.138Z,96329.88
2023-03-13T05:42:23.758Z,96342.72
2023-03-13T05:43:26.334Z,96334.28
2023-03-13T05:44:27.933Z,96335.56
2023-03-13T05:45:30.577Z,96327.75
2023-03-13T05:46:32.418Z,96325.38
2023-03-13T05:47:35.038Z,96325.75
2023-03-13T05:48:36.630Z,96339.00
2023-03-13T05:49:40.561Z,96321.94
2023-03-13T05:50:42.233Z,96323.09
2023-03-13T05:51:44.818Z,96313.34
2023-03-13T05:52:46.408Z,96323.16
2023-03-13T05:53:48.994Z,96325.13
2023-03-13T05:54:50.628Z,96320.81
2023-03-13T05:55:53.301Z,96332.19
2023-03-13T05:56:54.903Z,96317.44
2023-03-13T05:57:57.487Z,96331.03
2023-03-13T05:58:59.082Z,96328.63
2023-03-13T06:00:01.687Z,96327.13
2023-03-13T06:01:07.198Z,96331.81
2023-03-13T06:02:09.787Z,96332.25
2023-03-13T06:03:13.878Z,96326.75
2023-03-13T06:04:17.021Z,96323.59
2023-03-13T06:05:20.047Z,96319.31
2023-03-13T06:06:22.798Z,96329.47
2023-03-13T06:07:24.439Z,96324.03
2023-03-13T06:08:27.796Z,96328.69
2023-03-13T06:09:29.407Z,96318.63
2023-03-13T06:10:32.060Z,96317.09
2023-03-13T06:11:33.716Z,96320.97
2023-03-13T06:12:36.639Z,96324.91
2023-03-13T06:13:38.243Z,96340.13
2023-03-13T06:14:40.818Z,96331.59
2023-03-13T06:15:42.480Z,96327.78
2023-03-13T06:16:45.279Z,96330.84
2023-03-13T06:17:47.008Z,96325.81
2023-03-13T06:18:49.596Z,96321.91
2023-03-13T06:19:51.224Z,96328.44
2023-03-13T06:20:59.176Z,96347.56
2023-03-13T06:22:00.829Z,96323.88
2023-03-13T06:23:03.406Z,96321.53
2023-03-13T06:24:06.655Z,96319.56
2023-03-13T06:25:10.122Z,96318.81
2023-03-13T06:26:11.719Z,96315.75
2023-03-13T06:27:14.373Z,96325.06
2023-03-13T06:28:16.019Z,96318.06
2023-03-13T06:29:18.710Z,96332.13
2023-03-13T06:30:20.462Z,96320.84
2023-03-13T06:31:23.259Z,96331.75
2023-03-13T06:32:25.018Z,96321.66
2023-03-13T06:33:27.785Z,96317.03
2023-03-13T06:34:29.569Z,96309.97
2023-03-13T06:35:32.210Z,96325.53
2023-03-13T06:36:35.255Z,96311.25
2023-03-13T06:37:38.029Z,96325.69
2023-03-13T06:38:39.670Z,96304.72
2023-03-13T06:39:42.304Z,96302.66
2023-03-13T06:40:44.982Z,96324.88
2023-03-13T06:41:48.464Z,96323.72
2023-03-13T06:42:50.197Z,96344.41
2023-03-13T06:43:52.833Z,96330.81
2023-03-13T06:44:54.442Z,96328.09
2023-03-13T06:45:57.061Z,96347.22
2023-03-13T06:46:58.699Z,96341.75
2023-03-13T06:48:01.485Z,96343.66
2023-03-13T06:49:05.809Z,96336.69
2023-03-13T06:50:09.297Z,96333.59
2023-03-13T06:51:11.521Z,96355.03
2023-03-13T06:52:15.468Z,96321.97
2023-03-13T06:53:17.724Z,96330.88
2023-03-13T06:54:20.322Z,96340.56
2023-03-13T06:55:21.934Z,96336.78
2023-03-13T06:56:24.596Z,96337.16
2023-03-13T06:57:26.216Z,96336.41
2023-03-13T06:58:32.423Z,96328.22
2023-03-13T06:59:35.492Z,96332.19
2023-03-13T07:00:39.916Z,96310.78
2023-03-13T07:01:41.587Z,96310.78
2023-03-13T07:02:44.182Z,96295.63
2023-03-13T07:03:47.444Z,96315.47
2023-03-13T07:04:50.029Z,96308.88
2023-03-13T07:05:55.697Z,96294.47
2023-03-13T07:06:58.288Z,96331.53
2023-03-13T07:08:01.259Z,96295.34
2023-03-13T07:09:05.097Z,96312.44
2023-03-13T07:10:07.528Z,96288.69
2023-03-13T07:11:10.716Z,96312.44
2023-03-13T07:12:12.346Z,96302.75
2023-03-13T07:13:14.939Z,96330.03
2023-03-13T07:14:17.943Z,96313.69
2023-03-13T07:15:19.621Z,96322.63
2023-03-13T07:16:22.221Z,96319.91
2023-03-13T07:17:24.879Z,96321.09
2023-03-13T07:18:26.475Z,96327.75
2023-03-13T07:19:29.114Z,96321.09
2023-03-13T07:20:30.829Z,96324.25
2023-03-13T07:21:33.463Z,96343.75
2023-03-13T07:22:35.086Z,96338.69
2023-03-13T07:23:39.019Z,96346.09
2023-03-13T07:24:41.773Z,96345.28
2023-03-13T07:25:43.405Z,96336.75
2023-03-13T07:27:01.563Z,96344.94
2023-03-13T12:07:45.709Z,96001.84
2023-03-13T12:08:49.831Z,96041.31
2023-03-13T12:09:54.463Z,96034.66
2023-03-13T12:11:03.096Z,95996.38
2023-03-13T12:12:06.618Z,96013.19
2023-03-13T12:13:13.472Z,96013.19
2023-03-13T12:14:17.370Z,96040.88
2023-03-13T12:15:21.791Z,96052.22
2023-03-13T12:16:26.715Z,96040.91
2023-03-13T12:17:32.944Z,96058.47
2023-03-13T12:18:36.716Z,96027.22
2023-03-13T12:19:42.478Z,96037.38
2023-03-13T12:20:47.246Z,96028.41
2023-03-13T12:21:50.380Z,96047.53
2023-03-13T12:22:58.360Z,95990.16
2023-03-13T12:24:03.274Z,96012.00
2023-03-13T12:25:06.731Z,96031.09
2023-03-13T12:26:12.014Z,96031.50
2023-03-13T12:27:15.674Z,96034.25
2023-03-13T12:28:24.893Z,96052.19
2023-03-13T12:29:35.100Z,96055.34
2023-03-13T12:30:39.322Z,96070.56
2023-03-13T12:31:42.735Z,96049.06
2023-03-13T12:32:49.155Z,96044.38
2023-03-13T12:33:53.921Z,96021.69
2023-03-13T12:35:00.661Z,96023.66
2023-03-13T12:36:06.974Z,96025.25
2023-03-13T12:37:12.355Z,96038.13
2023-03-13T12:38:18.450Z,96075.66
2023-03-13T12:39:25.536Z,96044.41
2023-03-13T12:40:30.213Z,96042.06
2023-03-13T12:41:34.189Z,96023.72
2023-03-13T12:42:41.753Z,96029.19
2023-03-13T12:43:49.730Z,96046.75
2023-03-13T12:44:59.936Z,96062.38
2023-03-13T12:46:11.988Z,96049.50
2023-03-13T12:47:16.886Z,96022.53
2023-03-13T12:48:24.798Z,96029.19
2023-03-13T12:50:14.153Z,96029.56
2023-03-13T12:51:23.178Z,96045.19
2023-03-13T12:52:51.943Z,96030.75
2023-03-13T12:54:08.742Z,96005.38
2023-03-13T12:55:24.268Z,96020.22
2023-03-13T12:56:34.754Z,95999.50
2023-03-13T12:58:03.537Z,96046.78
2023-03-13T12:59:07.315Z,96039.72
2023-03-13T13:00:12.811Z,96021.78
2023-03-13T13:01:18.515Z,96044.03
2023-03-13T13:02:21.622Z,96037.78
2023-03-13T13:03:28.600Z,96019.03
2023-03-13T13:04:32.016Z,96054.56
2023-03-13T13:05:33.685Z,96009.28
2023-03-13T13:07:02.416Z,96013.56
2023-03-13T13:08:04.703Z,96012.41
2023-03-13T13:09:10.199Z,96020.22
2023-03-13T13:10:18.400Z,96001.88
2023-03-13T13:11:52.157Z,96015.13
2023-03-13T13:13:18.977Z,95995.63
2023-03-13T13:14:57.660Z,96022.16
2023-03-13T13:16:01.310Z,95998.72
2023-03-13T13:17:15.837Z,96019.81
2023-03-13T13:18:25.846Z,96006.56
2023-03-13T13:19:46.287Z,95967.50
2023-03-13T13:20:50.038Z,95973.78
2023-03-13T13:22:25.889Z,95978.81
2023-03-13T13:23:33.775Z,95980.38
2023-03-13T13:24:50.056Z,95965.16
2023-03-13T13:25:53.086Z,96008.09
2023-03-13T13:26:55.815Z,95982.72
2023-03-13T13:28:12.196Z,95955.81
2023-03-13T13:29:58.187Z,96007.72
2023-03-13T13:31:01.148Z,95974.53
2023-03-13T13:32:04.070Z,95960.50
2023-03-13T13:33:40.630Z,95973.75
2023-03-13T13:34:54.652Z,95967.53
2023-03-13T13:36:27.731Z,95951.53
2023-03-13T13:37:29.365Z,95973.38
2023-03-13T13:38:36.763Z,95966.72
2023-03-13T13:39:39.837Z,95955.44
2023-03-13T13:40:44.816Z,95947.63
2023-03-13T13:41:47.530Z,95942.94
2023-03-13T13:42:50.582Z,95952.31
2023-03-13T13:44:23.850Z,95951.91
2023-03-13T13:45:36.778Z,95953.09
2023-03-13T13:46:44.207Z,95945.28
2023-03-13T13:47:48.035Z,95936.72
2023-03-13T13:49:07.817Z,95925.41
2023-03-13T13:50:18.130Z,95935.53
2023-03-13T13:51:25.072Z,95921.50
2023-03-13T13:52:37.283Z,95928.53
2023-03-13T13:53:43.118Z,95923.47
2023-03-13T13:54:56.007Z,95915.66
2023-03-13T13:55:59.019Z,95907.09
2023-03-13T13:57:01.787Z,95902.78
2023-03-13T13:58:04.394Z,95900.44
2023-03-13T13:59:27.056Z,95899.66
2023-03-13T14:00:30.432Z,95908.63
2023-03-13T14:01:33.187Z,95914.47
2023-03-13T14:02:36.027Z,95911.38
2023-03-13T14:03:42.264Z,95902.00
2023-03-13T14:04:46.242Z,95906.28
2023-03-13T14:05:49.306Z,95918.78
2023-03-13T14:06:50.964Z,95904.72
2023-03-13T14:07:56.817Z,95894.56
2023-03-13T14:09:02.389Z,95897.69
2023-03-13T14:10:09.170Z,95908.63
2023-03-13T14:11:23.920Z,95896.91
2023-03-13T14:12:27.075Z,95886.34
2023-03-13T14:13:29.761Z,95877.34
2023-03-13T14:14:31.501Z,95878.84
2023-03-13T14:15:34.637Z,95885.38
2023-03-13T14:16:37.923Z,95885.38
2023-03-13T14:17:40.961Z,95892.84
2023-03-13T14:18:44.284Z,95891.75
2023-03-13T14:19:45.930Z,95898.81
2023-03-13T14:20:58.518Z,95892.56
2023-03-13T14:22:01.015Z,95889.81
2023-03-13T14:23:04.692Z,95894.91
2023-03-13T14:24:13.280Z,95899.63
2023-03-13T14:25:16.037Z,95900.00
2023-03-13T14:26:20.841Z,95896.88
2023-03-13T14:27:22.515Z,95902.31
2023-03-13T14:28:25.888Z,95891.78
2023-03-13T14:29:28.594Z,95902.31
2023-03-13T14:30:30.416Z,95895.31
2023-03-13T14:31:33.941Z,95891.00
2023-03-13T14:32:35.774Z,95889.44
2023-03-13T14:33:38.535Z,95897.63
2023-03-13T14:34:40.196Z,95902.34
2023-03-13T14:35:43.074Z,95901.13
2023-03-13T14:36:48.664Z,95899.19
2023-03-13T14:37:51.627Z,95906.59
2023-03-13T14:38:55.692Z,95892.53
2023-03-13T14:39:57.314Z,95879.66
2023-03-13T14:40:59.949Z,95882.78
2023-03-13T14:42:03.730Z,95889.78
2023-03-13T14:43:06.662Z,95887.06
2023-03-13T14:44:15.214Z,95884.72
2023-03-13T14:45:21.552Z,95882.00
2023-03-13T14:46:28.230Z,95889.44
2023-03-13T14:47:31.539Z,95886.75
2023-03-13T14:48:34.405Z,95877.38
2023-03-13T14:49:36.224Z,95885.56
2023-03-13T14:50:38.944Z,95878.19
2023-03-13T14:51:40.675Z,95866.44
2023-03-13T14:52:46.241Z,95864.13
2023-03-13T14:53:56.564Z,95853.97
2023-03-13T14:55:02.123Z,95868.38
2023-03-13T14:56:12.248Z,95843.03
2023-03-13T14:57:17.455Z,95838.72
2023-03-13T14:58:27.628Z,95832.47
2023-03-13T14:59:30.215Z,95837.16
2023-03-13T15:00:38.968Z,95839.44
2023-03-13T15:01:40.665Z,95833.13
2023-03-13T15:02:43.274Z,95815.13
2023-03-13T15:03:46.968Z,95826.47
2023-03-13T15:04:56.211Z,95830.03
2023-03-13T15:06:15.878Z,95844.88
2023-03-13T15:07:18.756Z,95845.66
2023-03-13T15:08:22.548Z,95852.31
2023-03-13T15:09:25.129Z,95847.63
2023-03-13T15:10:31.380Z,95865.59
2023-03-13T15:11:34.827Z,95864.03
2023-03-13T15:12:44.454Z,95873.81
2023-03-13T15:13:46.084Z,95853.94
2023-03-13T15:14:49.220Z,95827.88
2023-03-13T15:15:50.944Z,95827.13
2023-03-13T15:16:53.737Z,95811.91
2023-03-13T15:17:56.464Z,95812.28
2023-03-13T15:18:58.085Z,95805.63
2023-03-13T15:20:00.687Z,95789.56
2023-03-13T15:21:20.118Z,95774.13
2023-03-13T15:22:26.994Z,95778.38
2023-03-13T15:23:30.254Z,95773.53
2023-03-13T15:24:32.892Z,95774.25
2023-03-13T15:25:34.558Z,95786.44
2023-03-13T15:26:37.215Z,95786.81
2023-03-13T15:27:39.362Z,95779.88
2023-03-13T15:28:43.426Z,95781.75
2023-03-13T15:29:45.151Z,95776.00
2023-03-13T15:30:49.247Z,95770.63
2023-03-13T15:31:50.909Z,95774.97
2023-03-13T15:32:53.751Z,95773.38
2023-03-13T15:33:57.446Z,95766.72
2023-03-13T15:35:01.802Z,95767.50
2023-03-13T15:36:04.022Z,95783.19
2023-03-13T15:37:06.614Z,95800.41
2023-03-13T15:38:11.463Z,95778.09
2023-03-13T15:39:15.649Z,95777.72
2023-03-13T15:40:18.865Z,95775.38
2023-03-13T15:41:21.826Z,95759.34
2023-03-13T15:42:24.710Z,95762.41
2023-03-13T15:43:27.303Z,95775.69
2023-03-13T15:44:30.378Z,95768.31
2023-03-13T15:45:33.021Z,95764.03
2023-03-13T15:46:35.696Z,95766.34
2023-03-13T15:47:38.387Z,95748.78
2023-03-13T15:48:41.327Z,95758.13
2023-03-13T15:49:44.077Z,95754.22
2023-03-13T15:50:45.796Z,95749.50
2023-03-13T15:51:48.367Z,95747.91
2023-03-13T15:52:51.002Z,95756.09
2023-03-13T15:53:53.604Z,95754.94
2023-03-13T15:54:56.578Z,95767.78
2023-03-13T15:56:00.342Z,95754.09
2023-03-13T15:57:03.300Z,95756.88
2023-03-13T15:58:05.883Z,95761.22
2023-03-13T15:59:12.836Z,95755.72
2023-03-13T16:00:20.141Z,95755.72
2023-03-13T16:01:23.426Z,95761.22
2023-03-13T16:02:25.191Z,95774.06
2023-03-13T16:03:28.829Z,95748.97
2023-03-13T16:04:33.016Z,95754.41
2023-03-13T16:05:35.690Z,95767.34
2023-03-13T16:06:38.385Z,95763.78
2023-03-13T16:07:39.994Z,95763.88
2023-03-13T16:08:42.578Z,95746.63
2023-03-13T16:09:45.313Z,95740.84
2023-03-13T16:10:48.033Z,95723.69
2023-03-13T16:11:49.643Z,95749.72
2023-03-13T16:12:52.724Z,95734.91
2023-03-13T16:13:56.032Z,95740.00
2023-03-13T16:14:58.608Z,95734.13
2023-03-13T16:16:03.012Z,95736.84
2023-03-13T16:17:11.992Z,95741.97
2023-03-13T16:18:15.997Z,95743.13
2023-03-13T16:19:18.583Z,95739.91
2023-03-13T16:20:21.600Z,95727.47
2023-03-13T16:21:26.019Z,95734.53
2023-03-13T16:22:28.614Z,95719.69
2023-03-13T16:23:32.157Z,95729.38
2023-03-13T16:24:34.807Z,95725.72
2023-03-13T16:25:37.446Z,95728.94
2023-03-13T16:26:39.291Z,95726.16
2023-03-13T16:27:42.444Z,95726.91
2023-03-13T16:28:44.231Z,95723.41
2023-03-13T16:29:47.027Z,95723.81
2023-03-13T16:30:52.636Z,95729.25
2023-03-13T16:31:56.747Z,95712.09
2023-03-13T16:32:58.625Z,95696.94
2023-03-13T16:34:02.208Z,95710.16
2023-03-13T16:35:04.791Z,95708.59
2023-03-13T16:36:12.491Z,95710.94
2023-03-13T16:37:16.095Z,95716.72
2023-03-13T16:38:19.047Z,95725.31
2023-03-13T16:39:21.623Z,95732.06
2023-03-13T16:40:25.482Z,95719.19
2023-03-13T16:41:28.490Z,95712.53
2023-03-13T16:42:30.269Z,95704.34
2023-03-13T16:43:32.869Z,95705.13
2023-03-13T16:44:35.457Z,95716.03
2023-03-13T16:45:37.054Z,95695.34
2023-03-13T16:46:40.601Z,95679.72
2023-03-13T16:47:45.188Z,95681.22
2023-03-13T16:48:47.197Z,95672.25
2023-03-13T16:49:50.103Z,95676.47
2023-03-13T16:50:51.712Z,95671.41
2023-03-13T16:51:54.282Z,95670.59
2023-03-13T16:52:56.023Z,95679.22
2023-03-13T16:54:00.294Z,95689.06
2023-03-13T16:55:01.896Z,95694.13
2023-03-13T16:56:04.659Z,95693.81
2023-03-13T16:57:09.356Z,95690.34
2023-03-13T16:58:12.062Z,95681.38
2023-03-13T16:59:14.466Z,95684.88
2023-03-13T17:00:18.399Z,95689.59
2023-03-13T17:01:21.031Z,95686.50
2023-03-13T17:02:22.656Z,95685.28
2023-03-13T17:03:26.645Z,95683.69
2023-03-13T17:04:28.310Z,95688.38
2023-03-13T17:05:30.958Z,95692.69
2023-03-13T17:06:34.981Z,95691.22
2023-03-13T17:07:38.610Z,95702.97
2023-03-13T17:08:40.578Z,95696.28
2023-03-13T17:09:43.158Z,95687.28
2023-03-13T17:10:44.792Z,95692.34
2023-03-13T17:11:47.411Z,95691.53
2023-03-13T17:12:49.055Z,95695.03